aviador You're here:

SASA Decoded Metar

SALTA in ARGENTINA
Report Time2018-04-27 02:00:00
UTC Time2018-04-27 03:03:15
Flight Rules vfr VFR
WindCalm
Visibility9999 m
Phenomena:N/A
Clouds:Scattered 018 Hf
Broken 100 Hf
Expected CloudBase > 400 ft AGL from Temp-Dew spread
Ceiling10,000 ft
Temp18°C (ISA +11)
Dew Point17°C (94% RH)
QNH1016 hPa
Density Alt5,436 ft
Elevation3,990 ft
Report Wrong Elevation
Raw Report
SASA 270200Z 00000KT 9999 SCT018 BKN100 18/17 Q1016=

Extra information for SASA:More info

Metar Taf Metar & Taf Last 4 Metars F.Rules Stats Wind Profile Meteogram Temp Stats Airport Information Weather charts Add Link Nearby VenuesMetar ALERT Operation Metar Decoded Social comments